sensor_id;sensor_type;location;lat;lon;timestamp;pressure;altitude;pressure_sealevel;temperature;humidity
84032;BME280;74113;46.556;24.570;2023-11-18T00:00:34;97073.55;;;7.26;72.75
84032;BME280;74113;46.556;24.570;2023-11-18T00:03:23;97078.58;;;7.25;72.92
84032;BME280;74113;46.556;24.570;2023-11-18T00:05:52;97079.27;;;7.26;73.30
84032;BME280;74113;46.556;24.570;2023-11-18T00:08:21;97080.56;;;7.27;72.65
84032;BME280;74113;46.556;24.570;2023-11-18T00:10:49;97082.28;;;7.28;73.02
84032;BME280;74113;46.556;24.570;2023-11-18T00:13:17;97082.66;;;7.27;72.75
84032;BME280;74113;46.556;24.570;2023-11-18T00:15:46;97084.51;;;7.28;72.58
84032;BME280;74113;46.556;24.570;2023-11-18T00:18:16;97084.16;;;7.28;72.74
84032;BME280;74113;46.556;24.570;2023-11-18T00:20:45;97086.55;;;7.25;72.88
84032;BME280;74113;46.556;24.570;2023-11-18T00:23:13;97084.94;;;7.26;72.55
84032;BME280;74113;46.556;24.570;2023-11-18T00:25:42;97085.36;;;7.28;72.88
84032;BME280;74113;46.556;24.570;2023-11-18T00:28:11;97083.76;;;7.29;73.09
84032;BME280;74113;46.556;24.570;2023-11-18T00:30:40;97086.02;;;7.29;73.22
84032;BME280;74113;46.556;24.570;2023-11-18T00:33:08;97083.41;;;7.29;73.10
84032;BME280;74113;46.556;24.570;2023-11-18T00:35:37;97084.29;;;7.25;73.18
84032;BME280;74113;46.556;24.570;2023-11-18T00:38:07;97081.23;;;7.20;73.19
84032;BME280;74113;46.556;24.570;2023-11-18T00:40:35;97082.05;;;7.13;73.46
84032;BME280;74113;46.556;24.570;2023-11-18T00:43:04;97085.70;;;7.09;73.54
84032;BME280;74113;46.556;24.570;2023-11-18T00:45:34;97081.12;;;7.07;73.46
84032;BME280;74113;46.556;24.570;2023-11-18T00:48:02;97085.80;;;7.03;74.10
84032;BME280;74113;46.556;24.570;2023-11-18T00:50:33;97087.81;;;7.04;73.61
84032;BME280;74113;46.556;24.570;2023-11-18T00:53:01;97088.68;;;7.12;73.79
84032;BME280;74113;46.556;24.570;2023-11-18T00:55:30;97088.52;;;7.19;74.10
84032;BME280;74113;46.556;24.570;2023-11-18T00:58:00;97085.48;;;7.21;73.95
84032;BME280;74113;46.556;24.570;2023-11-18T01:00:29;97085.98;;;7.22;73.69
84032;BME280;74113;46.556;24.570;2023-11-18T01:03:01;97083.79;;;7.24;73.44
84032;BME280;74113;46.556;24.570;2023-11-18T01:05:31;97085.61;;;7.26;73.44
84032;BME280;74113;46.556;24.570;2023-11-18T01:08:02;97085.29;;;7.26;73.30
84032;BME280;74113;46.556;24.570;2023-11-18T01:10:31;97088.70;;;7.22;73.01
84032;BME280;74113;46.556;24.570;2023-11-18T01:13:00;97086.30;;;7.19;73.27
84032;BME280;74113;46.556;24.570;2023-11-18T01:15:29;97084.25;;;7.14;73.16
84032;BME280;74113;46.556;24.570;2023-11-18T01:18:00;97083.91;;;7.14;73.18
84032;BME280;74113;46.556;24.570;2023-11-18T01:20:29;97081.77;;;7.16;73.44
84032;BME280;74113;46.556;24.570;2023-11-18T01:22:57;97083.97;;;7.13;72.79
84032;BME280;74113;46.556;24.570;2023-11-18T01:25:28;97083.30;;;7.12;72.76
84032;BME280;74113;46.556;24.570;2023-11-18T01:27:57;97087.40;;;7.14;73.06
84032;BME280;74113;46.556;24.570;2023-11-18T01:30:26;97085.34;;;7.17;73.17
84032;BME280;74113;46.556;24.570;2023-11-18T01:32:55;97085.91;;;7.16;73.04
84032;BME280;74113;46.556;24.570;2023-11-18T01:35:25;97084.54;;;7.12;72.72
84032;BME280;74113;46.556;24.570;2023-11-18T01:37:54;97081.15;;;7.10;72.81
84032;BME280;74113;46.556;24.570;2023-11-18T01:40:23;97080.45;;;7.11;73.21
84032;BME280;74113;46.556;24.570;2023-11-18T01:42:52;97079.86;;;7.08;73.90
84032;BME280;74113;46.556;24.570;2023-11-18T01:45:20;97082.39;;;7.06;73.91
84032;BME280;74113;46.556;24.570;2023-11-18T01:47:49;97084.15;;;7.05;74.26
84032;BME280;74113;46.556;24.570;2023-11-18T01:50:17;97081.30;;;7.03;73.98
84032;BME280;74113;46.556;24.570;2023-11-18T01:52:47;97082.77;;;7.05;73.85
84032;BME280;74113;46.556;24.570;2023-11-18T01:55:16;97079.87;;;7.04;74.31
84032;BME280;74113;46.556;24.570;2023-11-18T01:57:45;97085.39;;;7.04;73.93
84032;BME280;74113;46.556;24.570;2023-11-18T02:00:14;97084.35;;;7.08;74.17
84032;BME280;74113;46.556;24.570;2023-11-18T02:02:46;97086.58;;;7.12;74.58
84032;BME280;74113;46.556;24.570;2023-11-18T02:05:16;97091.23;;;7.16;74.52
84032;BME280;74113;46.556;24.570;2023-11-18T02:07:46;97086.89;;;7.17;74.04
84032;BME280;74113;46.556;24.570;2023-11-18T02:10:15;97086.91;;;7.17;74.06
84032;BME280;74113;46.556;24.570;2023-11-18T02:13:12;97086.89;;;7.14;74.05
84032;BME280;74113;46.556;24.570;2023-11-18T02:15:42;97097.36;;;7.14;74.53
84032;BME280;74113;46.556;24.570;2023-11-18T02:18:13;97097.77;;;7.13;74.75
84032;BME280;74113;46.556;24.570;2023-11-18T02:20:43;97101.28;;;7.11;74.36
84032;BME280;74113;46.556;24.570;2023-11-18T02:23:12;97099.45;;;7.10;74.77
84032;BME280;74113;46.556;24.570;2023-11-18T02:25:44;97102.11;;;7.08;75.01
84032;BME280;74113;46.556;24.570;2023-11-18T02:28:13;97100.66;;;7.06;74.25
84032;BME280;74113;46.556;24.570;2023-11-18T02:30:42;97102.08;;;7.05;74.06
84032;BME280;74113;46.556;24.570;2023-11-18T02:35:57;97108.00;;;7.07;74.24
84032;BME280;74113;46.556;24.570;2023-11-18T02:38:30;97105.86;;;7.09;74.39
84032;BME280;74113;46.556;24.570;2023-11-18T02:41:06;97107.06;;;7.09;74.46
84032;BME280;74113;46.556;24.570;2023-11-18T02:43:37;97104.45;;;7.10;74.66
84032;BME280;74113;46.556;24.570;2023-11-18T02:46:08;97109.73;;;7.11;74.65
84032;BME280;74113;46.556;24.570;2023-11-18T02:48:40;97110.33;;;7.10;75.12
84032;BME280;74113;46.556;24.570;2023-11-18T02:51:12;97115.24;;;7.08;75.18
84032;BME280;74113;46.556;24.570;2023-11-18T02:53:40;97114.52;;;7.05;74.83
84032;BME280;74113;46.556;24.570;2023-11-18T02:56:09;97117.74;;;7.02;75.18
84032;BME280;74113;46.556;24.570;2023-11-18T02:58:38;97118.73;;;6.99;74.73
84032;BME280;74113;46.556;24.570;2023-11-18T03:01:06;97123.13;;;6.97;74.72
84032;BME280;74113;46.556;24.570;2023-11-18T03:03:35;97121.02;;;6.94;74.66
84032;BME280;74113;46.556;24.570;2023-11-18T03:06:05;97120.91;;;6.93;75.37
84032;BME280;74113;46.556;24.570;2023-11-18T03:08:34;97124.11;;;6.90;75.04
84032;BME280;74113;46.556;24.570;2023-11-18T03:11:03;97122.89;;;6.90;74.88
84032;BME280;74113;46.556;24.570;2023-11-18T03:13:33;97128.68;;;6.92;75.07
84032;BME280;74113;46.556;24.570;2023-11-18T03:16:02;97129.50;;;6.93;75.30
84032;BME280;74113;46.556;24.570;2023-11-18T03:18:32;97130.86;;;6.94;75.20
84032;BME280;74113;46.556;24.570;2023-11-18T03:21:01;97126.36;;;6.94;75.21
84032;BME280;74113;46.556;24.570;2023-11-18T03:23:29;97129.20;;;6.96;74.70
84032;BME280;74113;46.556;24.570;2023-11-18T03:25:58;97131.42;;;6.96;74.94
84032;BME280;74113;46.556;24.570;2023-11-18T03:28:26;97132.13;;;6.92;74.65
84032;BME280;74113;46.556;24.570;2023-11-18T03:30:55;97128.31;;;6.89;74.39
84032;BME280;74113;46.556;24.570;2023-11-18T03:33:23;97129.48;;;6.86;74.34
84032;BME280;74113;46.556;24.570;2023-11-18T03:35:52;97130.91;;;6.84;74.67
84032;BME280;74113;46.556;24.570;2023-11-18T03:38:21;97131.87;;;6.82;74.47
84032;BME280;74113;46.556;24.570;2023-11-18T03:40:50;97132.95;;;6.85;74.47
84032;BME280;74113;46.556;24.570;2023-11-18T03:43:20;97135.83;;;6.86;74.87
84032;BME280;74113;46.556;24.570;2023-11-18T03:45:49;97139.95;;;6.87;74.98
84032;BME280;74113;46.556;24.570;2023-11-18T03:48:17;97140.09;;;6.88;74.78
84032;BME280;74113;46.556;24.570;2023-11-18T03:50:46;97144.61;;;6.87;74.56
84032;BME280;74113;46.556;24.570;2023-11-18T03:53:15;97146.49;;;6.87;74.52
84032;BME280;74113;46.556;24.570;2023-11-18T03:55:43;97147.04;;;6.86;74.82
84032;BME280;74113;46.556;24.570;2023-11-18T03:58:12;97144.15;;;6.85;74.83
84032;BME280;74113;46.556;24.570;2023-11-18T04:00:41;97147.84;;;6.84;74.90
84032;BME280;74113;46.556;24.570;2023-11-18T04:03:10;97145.80;;;6.79;74.76
84032;BME280;74113;46.556;24.570;2023-11-18T04:05:44;97150.96;;;6.74;75.08
84032;BME280;74113;46.556;24.570;2023-11-18T04:08:13;97146.05;;;6.72;74.72
84032;BME280;74113;46.556;24.570;2023-11-18T04:10:42;97155.10;;;6.70;74.59
84032;BME280;74113;46.556;24.570;2023-11-18T04:13:11;97155.58;;;6.63;74.44
84032;BME280;74113;46.556;24.570;2023-11-18T04:15:39;97154.31;;;6.60;74.74
84032;BME280;74113;46.556;24.570;2023-11-18T04:18:07;97155.13;;;6.62;75.06
84032;BME280;74113;46.556;24.570;2023-11-18T04:20:36;97155.86;;;6.60;75.41
84032;BME280;74113;46.556;24.570;2023-11-18T04:23:05;97153.41;;;6.61;75.27
84032;BME280;74113;46.556;24.570;2023-11-18T04:25:34;97151.29;;;6.63;75.26
84032;BME280;74113;46.556;24.570;2023-11-18T04:28:03;97154.02;;;6.63;74.99
84032;BME280;74113;46.556;24.570;2023-11-18T04:30:32;97157.44;;;6.64;74.83
84032;BME280;74113;46.556;24.570;2023-11-18T04:33:01;97160.54;;;6.64;74.72
84032;BME280;74113;46.556;24.570;2023-11-18T04:35:29;97160.39;;;6.63;74.81
84032;BME280;74113;46.556;24.570;2023-11-18T04:37:58;97159.95;;;6.62;74.95
84032;BME280;74113;46.556;24.570;2023-11-18T04:40:26;97164.18;;;6.59;75.09
84032;BME280;74113;46.556;24.570;2023-11-18T04:42:55;97167.29;;;6.59;74.93
84032;BME280;74113;46.556;24.570;2023-11-18T04:45:23;97171.96;;;6.59;75.00
84032;BME280;74113;46.556;24.570;2023-11-18T04:47:52;97174.66;;;6.60;75.23
84032;BME280;74113;46.556;24.570;2023-11-18T04:50:23;97180.48;;;6.61;75.32
84032;BME280;74113;46.556;24.570;2023-11-18T04:52:51;97181.58;;;6.64;75.12
84032;BME280;74113;46.556;24.570;2023-11-18T04:55:20;97185.19;;;6.64;74.86
84032;BME280;74113;46.556;24.570;2023-11-18T04:57:48;97186.52;;;6.61;74.81
84032;BME280;74113;46.556;24.570;2023-11-18T05:00:18;97184.95;;;6.57;74.45
84032;BME280;74113;46.556;24.570;2023-11-18T05:02:48;97188.25;;;6.52;74.79
84032;BME280;74113;46.556;24.570;2023-11-18T05:05:17;97189.05;;;6.45;75.25
84032;BME280;74113;46.556;24.570;2023-11-18T05:07:46;97193.98;;;6.38;75.13
84032;BME280;74113;46.556;24.570;2023-11-18T05:10:16;97197.42;;;6.43;74.99
84032;BME280;74113;46.556;24.570;2023-11-18T05:12:44;97199.84;;;6.47;75.01
84032;BME280;74113;46.556;24.570;2023-11-18T05:15:22;97207.35;;;6.48;75.31
84032;BME280;74113;46.556;24.570;2023-11-18T05:17:54;97206.61;;;6.50;75.15
84032;BME280;74113;46.556;24.570;2023-11-18T05:20:23;97211.32;;;6.44;74.76
84032;BME280;74113;46.556;24.570;2023-11-18T05:22:52;97215.48;;;6.39;75.08
84032;BME280;74113;46.556;24.570;2023-11-18T05:25:20;97216.48;;;6.35;75.05
84032;BME280;74113;46.556;24.570;2023-11-18T05:27:49;97225.92;;;6.32;74.98
84032;BME280;74113;46.556;24.570;2023-11-18T05:30:18;97229.73;;;6.32;75.39
84032;BME280;74113;46.556;24.570;2023-11-18T05:32:46;97229.59;;;6.31;75.01
84032;BME280;74113;46.556;24.570;2023-11-18T05:35:15;97231.36;;;6.34;75.04
84032;BME280;74113;46.556;24.570;2023-11-18T05:37:44;97231.53;;;6.39;74.97
84032;BME280;74113;46.556;24.570;2023-11-18T05:40:13;97237.60;;;6.42;75.37
84032;BME280;74113;46.556;24.570;2023-11-18T05:42:44;97237.02;;;6.43;74.96
84032;BME280;74113;46.556;24.570;2023-11-18T05:45:15;97240.23;;;6.41;74.70
84032;BME280;74113;46.556;24.570;2023-11-18T05:47:56;97243.91;;;6.39;74.17
84032;BME280;74113;46.556;24.570;2023-11-18T05:50:25;97246.62;;;6.36;74.35
84032;BME280;74113;46.556;24.570;2023-11-18T05:52:54;97250.34;;;6.33;74.19
84032;BME280;74113;46.556;24.570;2023-11-18T05:55:24;97247.89;;;6.29;74.31
84032;BME280;74113;46.556;24.570;2023-11-18T05:57:53;97251.42;;;6.27;74.10
84032;BME280;74113;46.556;24.570;2023-11-18T06:00:21;97252.92;;;6.24;74.27
84032;BME280;74113;46.556;24.570;2023-11-18T06:03:03;97253.56;;;6.20;74.62
84032;BME280;74113;46.556;24.570;2023-11-18T06:05:32;97257.05;;;6.19;74.24
84032;BME280;74113;46.556;24.570;2023-11-18T06:08:03;97259.16;;;6.18;74.14
84032;BME280;74113;46.556;24.570;2023-11-18T06:10:33;97262.70;;;6.16;74.00
84032;BME280;74113;46.556;24.570;2023-11-18T06:13:02;97261.48;;;6.16;74.28
84032;BME280;74113;46.556;24.570;2023-11-18T06:15:32;97264.69;;;6.18;74.32
84032;BME280;74113;46.556;24.570;2023-11-18T06:18:04;97265.12;;;6.20;74.79
84032;BME280;74113;46.556;24.570;2023-11-18T06:20:34;97264.73;;;6.21;74.93
84032;BME280;74113;46.556;24.570;2023-11-18T06:23:03;97270.10;;;6.20;74.59
84032;BME280;74113;46.556;24.570;2023-11-18T06:25:32;97267.69;;;6.20;73.90
84032;BME280;74113;46.556;24.570;2023-11-18T06:28:06;97270.79;;;6.20;73.92
84032;BME280;74113;46.556;24.570;2023-11-18T06:30:36;97276.36;;;6.19;74.05
84032;BME280;74113;46.556;24.570;2023-11-18T06:33:05;97276.08;;;6.17;73.92
84032;BME280;74113;46.556;24.570;2023-11-18T06:35:33;97280.36;;;6.18;73.91
84032;BME280;74113;46.556;24.570;2023-11-18T06:38:03;97277.79;;;6.17;73.61
84032;BME280;74113;46.556;24.570;2023-11-18T06:40:32;97279.55;;;6.16;74.09
84032;BME280;74113;46.556;24.570;2023-11-18T06:43:01;97286.45;;;6.11;73.65
84032;BME280;74113;46.556;24.570;2023-11-18T06:45:31;97292.84;;;6.11;73.42
84032;BME280;74113;46.556;24.570;2023-11-18T06:48:00;97296.85;;;6.14;74.15
84032;BME280;74113;46.556;24.570;2023-11-18T06:50:29;97299.39;;;6.16;74.22
84032;BME280;74113;46.556;24.570;2023-11-18T06:52:58;97299.36;;;6.12;73.93
84032;BME280;74113;46.556;24.570;2023-11-18T06:55:27;97301.73;;;6.13;74.30
84032;BME280;74113;46.556;24.570;2023-11-18T06:57:55;97303.08;;;6.13;74.39
84032;BME280;74113;46.556;24.570;2023-11-18T07:00:24;97308.98;;;6.12;73.99
84032;BME280;74113;46.556;24.570;2023-11-18T07:02:56;97312.48;;;6.10;73.77
84032;BME280;74113;46.556;24.570;2023-11-18T07:05:26;97316.98;;;6.10;73.90
84032;BME280;74113;46.556;24.570;2023-11-18T07:07:54;97315.77;;;6.10;73.96
84032;BME280;74113;46.556;24.570;2023-11-18T07:10:23;97320.42;;;6.10;74.55
84032;BME280;74113;46.556;24.570;2023-11-18T07:12:51;97324.54;;;6.11;74.46
84032;BME280;74113;46.556;24.570;2023-11-18T07:15:20;97326.05;;;6.12;74.17
84032;BME280;74113;46.556;24.570;2023-11-18T07:17:48;97334.48;;;6.12;74.34
84032;BME280;74113;46.556;24.570;2023-11-18T07:20:17;97337.80;;;6.11;74.28
84032;BME280;74113;46.556;24.570;2023-11-18T07:22:46;97339.36;;;6.10;74.83
84032;BME280;74113;46.556;24.570;2023-11-18T07:25:14;97345.97;;;6.09;74.59
84032;BME280;74113;46.556;24.570;2023-11-18T07:27:43;97350.50;;;6.08;74.37
84032;BME280;74113;46.556;24.570;2023-11-18T07:30:11;97348.18;;;6.04;74.09
84032;BME280;74113;46.556;24.570;2023-11-18T07:32:40;97348.11;;;6.06;74.43
84032;BME280;74113;46.556;24.570;2023-11-18T07:35:09;97351.70;;;6.12;74.77
84032;BME280;74113;46.556;24.570;2023-11-18T07:37:40;97355.83;;;6.17;74.35
84032;BME280;74113;46.556;24.570;2023-11-18T07:40:10;97357.87;;;6.23;74.79
84032;BME280;74113;46.556;24.570;2023-11-18T07:42:40;97361.27;;;6.24;74.81
84032;BME280;74113;46.556;24.570;2023-11-18T07:45:10;97365.05;;;6.24;75.48
84032;BME280;74113;46.556;24.570;2023-11-18T07:47:46;97365.65;;;6.27;74.97
84032;BME280;74113;46.556;24.570;2023-11-18T07:50:18;97373.81;;;6.29;74.97
84032;BME280;74113;46.556;24.570;2023-11-18T07:52:50;97377.77;;;6.30;74.61
84032;BME280;74113;46.556;24.570;2023-11-18T07:55:19;97377.32;;;6.28;74.14
84032;BME280;74113;46.556;24.570;2023-11-18T07:57:47;97380.56;;;6.29;74.73
84032;BME280;74113;46.556;24.570;2023-11-18T08:00:16;97380.52;;;6.30;74.19
84032;BME280;74113;46.556;24.570;2023-11-18T08:02:45;97382.02;;;6.27;74.20
84032;BME280;74113;46.556;24.570;2023-11-18T08:05:14;97378.71;;;6.27;74.39
84032;BME280;74113;46.556;24.570;2023-11-18T08:07:43;97386.00;;;6.31;74.95
84032;BME280;74113;46.556;24.570;2023-11-18T08:10:13;97390.86;;;6.35;74.79
84032;BME280;74113;46.556;24.570;2023-11-18T08:12:48;97390.91;;;6.38;74.90
84032;BME280;74113;46.556;24.570;2023-11-18T08:15:17;97399.95;;;6.40;74.75
84032;BME280;74113;46.556;24.570;2023-11-18T08:17:47;97401.64;;;6.41;74.61
84032;BME280;74113;46.556;24.570;2023-11-18T08:20:15;97404.60;;;6.45;74.46
84032;BME280;74113;46.556;24.570;2023-11-18T08:22:44;97407.77;;;6.48;74.47
84032;BME280;74113;46.556;24.570;2023-11-18T08:25:14;97410.95;;;6.46;73.32
84032;BME280;74113;46.556;24.570;2023-11-18T08:27:44;97409.39;;;6.41;73.87
84032;BME280;74113;46.556;24.570;2023-11-18T08:30:16;97411.27;;;6.37;74.13
84032;BME280;74113;46.556;24.570;2023-11-18T08:32:46;97418.64;;;6.33;73.85
84032;BME280;74113;46.556;24.570;2023-11-18T08:35:16;97424.23;;;6.32;74.40
84032;BME280;74113;46.556;24.570;2023-11-18T08:37:45;97431.44;;;6.32;74.39
84032;BME280;74113;46.556;24.570;2023-11-18T08:40:14;97435.84;;;6.29;74.11
84032;BME280;74113;46.556;24.570;2023-11-18T08:42:48;97438.05;;;6.24;74.03
84032;BME280;74113;46.556;24.570;2023-11-18T08:45:23;97440.73;;;6.21;73.81
84032;BME280;74113;46.556;24.570;2023-11-18T08:48:03;97444.59;;;6.15;73.83
84032;BME280;74113;46.556;24.570;2023-11-18T08:50:39;97443.60;;;6.14;74.04
84032;BME280;74113;46.556;24.570;2023-11-18T08:53:08;97449.13;;;6.18;74.44
84032;BME280;74113;46.556;24.570;2023-11-18T08:55:38;97455.38;;;6.22;74.87
84032;BME280;74113;46.556;24.570;2023-11-18T08:58:11;97457.73;;;6.24;74.75
84032;BME280;74113;46.556;24.570;2023-11-18T09:00:58;97461.95;;;6.26;74.71
84032;BME280;74113;46.556;24.570;2023-11-18T09:03:44;97461.23;;;6.27;75.14
84032;BME280;74113;46.556;24.570;2023-11-18T09:06:23;97466.14;;;6.30;74.68
84032;BME280;74113;46.556;24.570;2023-11-18T09:08:57;97466.08;;;6.32;74.42
84032;BME280;74113;46.556;24.570;2023-11-18T09:11:27;97471.28;;;6.31;74.35
84032;BME280;74113;46.556;24.570;2023-11-18T09:14:00;97473.21;;;6.30;74.03
84032;BME280;74113;46.556;24.570;2023-11-18T09:16:32;97475.36;;;6.27;74.13
84032;BME280;74113;46.556;24.570;2023-11-18T09:19:06;97482.45;;;6.21;74.09
84032;BME280;74113;46.556;24.570;2023-11-18T09:21:35;97485.93;;;6.20;74.24
84032;BME280;74113;46.556;24.570;2023-11-18T09:24:05;97484.05;;;6.25;74.51
84032;BME280;74113;46.556;24.570;2023-11-18T09:26:36;97486.53;;;6.33;74.40
84032;BME280;74113;46.556;24.570;2023-11-18T09:29:05;97485.70;;;6.37;74.81
84032;BME280;74113;46.556;24.570;2023-11-18T09:31:37;97485.67;;;6.42;74.52
84032;BME280;74113;46.556;24.570;2023-11-18T09:34:05;97492.71;;;6.43;73.66
84032;BME280;74113;46.556;24.570;2023-11-18T09:36:35;97488.38;;;6.44;74.11
84032;BME280;74113;46.556;24.570;2023-11-18T09:39:04;97492.90;;;6.48;74.27
84032;BME280;74113;46.556;24.570;2023-11-18T09:41:33;97492.29;;;6.51;74.26
84032;BME280;74113;46.556;24.570;2023-11-18T09:44:06;97495.03;;;6.51;74.21
84032;BME280;74113;46.556;24.570;2023-11-18T09:46:36;97490.06;;;6.50;73.15
84032;BME280;74113;46.556;24.570;2023-11-18T09:49:39;97497.70;;;6.49;73.73
84032;BME280;74113;46.556;24.570;2023-11-18T09:52:15;97500.18;;;6.52;73.70
84032;BME280;74113;46.556;24.570;2023-11-18T09:55:02;97498.78;;;6.52;72.45
84032;BME280;74113;46.556;24.570;2023-11-18T09:57:37;97498.26;;;6.47;72.40
84032;BME280;74113;46.556;24.570;2023-11-18T10:00:11;97500.59;;;6.50;72.97
84032;BME280;74113;46.556;24.570;2023-11-18T10:02:57;97500.52;;;6.52;73.48
84032;BME280;74113;46.556;24.570;2023-11-18T10:05:30;97501.46;;;6.55;73.37
84032;BME280;74113;46.556;24.570;2023-11-18T10:07:59;97501.14;;;6.59;73.64
84032;BME280;74113;46.556;24.570;2023-11-18T10:10:28;97495.91;;;6.60;72.90
84032;BME280;74113;46.556;24.570;2023-11-18T10:13:05;97502.48;;;6.59;72.09
84032;BME280;74113;46.556;24.570;2023-11-18T10:15:49;97500.21;;;6.55;71.83
84032;BME280;74113;46.556;24.570;2023-11-18T10:18:21;97504.38;;;6.50;72.03
84032;BME280;74113;46.556;24.570;2023-11-18T10:20:52;97506.70;;;6.47;72.31
84032;BME280;74113;46.556;24.570;2023-11-18T10:23:22;97508.17;;;6.45;72.22
84032;BME280;74113;46.556;24.570;2023-11-18T10:28:31;97512.36;;;6.43;73.19
84032;BME280;74113;46.556;24.570;2023-11-18T10:31:06;97516.20;;;6.42;73.36
84032;BME280;74113;46.556;24.570;2023-11-18T10:33:38;97514.55;;;6.40;74.56
84032;BME280;74113;46.556;24.570;2023-11-18T10:36:23;97514.68;;;6.36;73.39
84032;BME280;74113;46.556;24.570;2023-11-18T10:38:52;97520.93;;;6.35;73.64
84032;BME280;74113;46.556;24.570;2023-11-18T10:41:25;97520.36;;;6.36;73.64
84032;BME280;74113;46.556;24.570;2023-11-18T10:44:06;97524.35;;;6.35;73.46
84032;BME280;74113;46.556;24.570;2023-11-18T10:46:36;97529.15;;;6.36;73.11
84032;BME280;74113;46.556;24.570;2023-11-18T10:49:05;97533.00;;;6.35;73.03
84032;BME280;74113;46.556;24.570;2023-11-18T10:51:38;97536.56;;;6.31;73.31
84032;BME280;74113;46.556;24.570;2023-11-18T10:54:09;97540.30;;;6.33;73.60
84032;BME280;74113;46.556;24.570;2023-11-18T10:56:49;97539.69;;;6.35;73.28
84032;BME280;74113;46.556;24.570;2023-11-18T10:59:18;97542.23;;;6.36;72.97
84032;BME280;74113;46.556;24.570;2023-11-18T11:01:47;97548.19;;;6.29;72.62
84032;BME280;74113;46.556;24.570;2023-11-18T11:04:18;97553.63;;;6.30;73.06
84032;BME280;74113;46.556;24.570;2023-11-18T11:06:50;97549.87;;;6.35;73.38
84032;BME280;74113;46.556;24.570;2023-11-18T11:09:24;97550.00;;;6.36;73.27
84032;BME280;74113;46.556;24.570;2023-11-18T11:11:57;97550.90;;;6.35;73.69
84032;BME280;74113;46.556;24.570;2023-11-18T11:14:34;97554.29;;;6.36;73.23
84032;BME280;74113;46.556;24.570;2023-11-18T11:17:13;97558.45;;;6.36;72.47
84032;BME280;74113;46.556;24.570;2023-11-18T11:20:00;97560.95;;;6.33;73.04
84032;BME280;74113;46.556;24.570;2023-11-18T11:25:55;97560.18;;;6.36;73.10
84032;BME280;74113;46.556;24.570;2023-11-18T11:28:31;97566.71;;;6.36;72.34
84032;BME280;74113;46.556;24.570;2023-11-18T11:31:21;97572.20;;;6.36;72.92
84032;BME280;74113;46.556;24.570;2023-11-18T11:33:59;97571.80;;;6.39;71.87
84032;BME280;74113;46.556;24.570;2023-11-18T11:36:43;97572.52;;;6.43;72.21
84032;BME280;74113;46.556;24.570;2023-11-18T11:39:14;97576.31;;;6.53;72.68
84032;BME280;74113;46.556;24.570;2023-11-18T11:41:52;97578.02;;;6.63;72.61
84032;BME280;74113;46.556;24.570;2023-11-18T11:44:25;97580.71;;;6.70;72.26
84032;BME280;74113;46.556;24.570;2023-11-18T11:47:00;97583.86;;;6.79;72.34
84032;BME280;74113;46.556;24.570;2023-11-18T11:49:39;97586.75;;;6.85;71.31
84032;BME280;74113;46.556;24.570;2023-11-18T11:52:29;97589.08;;;6.88;71.59
84032;BME280;74113;46.556;24.570;2023-11-18T11:55:23;97594.05;;;6.84;70.26
84032;BME280;74113;46.556;24.570;2023-11-18T11:57:53;97595.66;;;6.76;71.16
84032;BME280;74113;46.556;24.570;2023-11-18T12:00:22;97603.14;;;6.75;72.04
84032;BME280;74113;46.556;24.570;2023-11-18T12:02:54;97608.67;;;6.75;72.26
84032;BME280;74113;46.556;24.570;2023-11-18T12:05:25;97610.94;;;6.74;71.40
84032;BME280;74113;46.556;24.570;2023-11-18T12:07:56;97614.50;;;6.70;71.35
84032;BME280;74113;46.556;24.570;2023-11-18T12:10:31;97616.54;;;6.71;72.75
84032;BME280;74113;46.556;24.570;2023-11-18T12:13:10;97619.85;;;6.75;72.64
84032;BME280;74113;46.556;24.570;2023-11-18T12:18:23;97631.33;;;6.72;72.28
84032;BME280;74113;46.556;24.570;2023-11-18T12:20:53;97633.35;;;6.74;73.17
84032;BME280;74113;46.556;24.570;2023-11-18T12:23:25;97635.56;;;6.75;73.00
84032;BME280;74113;46.556;24.570;2023-11-18T12:25:55;97635.52;;;6.76;72.16
84032;BME280;74113;46.556;24.570;2023-11-18T12:28:29;97639.67;;;6.75;71.81
84032;BME280;74113;46.556;24.570;2023-11-18T12:31:06;97636.77;;;6.75;72.41
84032;BME280;74113;46.556;24.570;2023-11-18T12:39:40;97638.48;;;6.70;73.04
84032;BME280;74113;46.556;24.570;2023-11-18T12:47:47;97644.63;;;6.66;72.33
84032;BME280;74113;46.556;24.570;2023-11-18T12:50:17;97644.48;;;6.66;72.65
84032;BME280;74113;46.556;24.570;2023-11-18T12:52:53;97650.93;;;6.68;72.70
84032;BME280;74113;46.556;24.570;2023-11-18T12:55:22;97653.34;;;6.69;72.84
84032;BME280;74113;46.556;24.570;2023-11-18T12:57:52;97656.19;;;6.66;72.67
84032;BME280;74113;46.556;24.570;2023-11-18T13:00:22;97662.09;;;6.65;72.93
84032;BME280;74113;46.556;24.570;2023-11-18T13:02:56;97666.58;;;6.65;72.71
84032;BME280;74113;46.556;24.570;2023-11-18T13:05:28;97668.27;;;6.66;71.87
84032;BME280;74113;46.556;24.570;2023-11-18T13:07:58;97670.65;;;6.61;71.37
84032;BME280;74113;46.556;24.570;2023-11-18T13:10:30;97673.77;;;6.61;72.27
84032;BME280;74113;46.556;24.570;2023-11-18T13:12:59;97675.58;;;6.64;72.09
84032;BME280;74113;46.556;24.570;2023-11-18T13:15:29;97680.73;;;6.64;72.74
84032;BME280;74113;46.556;24.570;2023-11-18T13:18:02;97686.59;;;6.64;73.35
84032;BME280;74113;46.556;24.570;2023-11-18T13:20:35;97686.92;;;6.65;74.14
84032;BME280;74113;46.556;24.570;2023-11-18T13:23:04;97691.05;;;6.65;73.19
84032;BME280;74113;46.556;24.570;2023-11-18T13:25:37;97694.68;;;6.64;72.52
84032;BME280;74113;46.556;24.570;2023-11-18T13:28:08;97697.14;;;6.63;73.31
84032;BME280;74113;46.556;24.570;2023-11-18T13:30:39;97703.02;;;6.63;73.50
84032;BME280;74113;46.556;24.570;2023-11-18T13:33:09;97706.65;;;6.62;73.97
84032;BME280;74113;46.556;24.570;2023-11-18T13:35:37;97714.80;;;6.60;72.63
84032;BME280;74113;46.556;24.570;2023-11-18T13:38:06;97715.17;;;6.60;72.62
84032;BME280;74113;46.556;24.570;2023-11-18T13:40:45;97720.61;;;6.62;73.20
84032;BME280;74113;46.556;24.570;2023-11-18T13:43:17;97726.02;;;6.65;72.94